createdAt,value
2023-03-08T00:01:14.036Z,0.83
2023-03-08T00:03:43.284Z,0.79
2023-03-08T00:06:16.949Z,0.80
2023-03-08T00:08:46.232Z,0.80
2023-03-08T00:11:16.090Z,0.86
2023-03-08T00:13:45.283Z,0.84
2023-03-08T00:16:14.760Z,0.87
2023-03-08T00:18:46.186Z,1.02
2023-03-08T00:21:19.743Z,1.06
2023-03-08T00:23:48.831Z,1.14
2023-03-08T00:26:17.834Z,1.14
2023-03-08T00:28:47.962Z,1.12
2023-03-08T00:31:17.071Z,1.12
2023-03-08T00:33:46.036Z,1.17
2023-03-08T00:36:19.968Z,1.13
2023-03-08T00:38:51.652Z,1.11
2023-03-08T00:41:21.085Z,1.09
2023-03-08T00:43:50.692Z,1.18
2023-03-08T00:46:19.709Z,1.19
2023-03-08T00:48:49.030Z,1.22
2023-03-08T00:51:22.477Z,1.20
2023-03-08T00:53:51.444Z,1.29
2023-03-08T00:56:20.838Z,1.32
2023-03-08T00:58:49.827Z,1.23
2023-03-08T01:01:20.578Z,1.18
2023-03-08T01:03:51.752Z,1.16
2023-03-08T01:06:22.296Z,1.17
2023-03-08T01:08:51.411Z,1.19
2023-03-08T01:11:22.877Z,1.24
2023-03-08T01:13:54.067Z,1.17
2023-03-08T01:16:26.037Z,1.11
2023-03-08T01:18:55.914Z,1.15
2023-03-08T01:21:27.375Z,1.16
2023-03-08T01:23:56.948Z,1.16
2023-03-08T01:26:27.939Z,1.06
2023-03-08T01:28:58.537Z,0.88
2023-03-08T01:31:32.281Z,0.81
2023-03-08T01:34:02.574Z,0.90
2023-03-08T01:36:32.969Z,0.87
2023-03-08T01:39:02.504Z,0.91
2023-03-08T01:41:33.067Z,0.88
2023-03-08T01:44:03.240Z,0.84
2023-03-08T01:46:33.410Z,0.80
2023-03-08T01:49:13.824Z,0.83
2023-03-08T01:51:48.118Z,0.85
2023-03-08T01:54:21.914Z,0.87
2023-03-08T01:56:54.796Z,0.93
2023-03-08T01:59:24.911Z,1.17
2023-03-08T02:01:54.084Z,1.45
2023-03-08T02:04:24.127Z,1.38
2023-03-08T02:06:54.490Z,1.26
2023-03-08T02:09:25.950Z,1.07
2023-03-08T02:12:00.145Z,1.09
2023-03-08T02:14:30.166Z,1.10
2023-03-08T02:16:59.653Z,1.21
2023-03-08T02:19:35.169Z,1.35
2023-03-08T02:22:11.834Z,1.53
2023-03-08T02:24:43.309Z,1.29
2023-03-08T02:27:19.533Z,1.24
2023-03-08T02:29:48.588Z,1.25
2023-03-08T02:32:17.908Z,1.24
2023-03-08T02:34:46.897Z,1.27
2023-03-08T02:37:15.903Z,1.29
2023-03-08T02:39:46.204Z,1.48
2023-03-08T02:42:15.150Z,1.33
2023-03-08T02:44:45.206Z,1.31
2023-03-08T02:47:14.346Z,1.40
2023-03-08T02:49:43.326Z,1.36
2023-03-08T02:52:12.685Z,1.39
2023-03-08T02:54:41.785Z,1.27
2023-03-08T02:57:12.131Z,1.36
2023-03-08T02:59:41.138Z,1.60
2023-03-08T03:02:10.164Z,1.54
2023-03-08T03:04:39.232Z,1.40
2023-03-08T03:07:08.166Z,1.37
2023-03-08T03:09:38.079Z,1.40
2023-03-08T03:12:07.758Z,1.60
2023-03-08T03:14:41.658Z,1.58
2023-03-08T03:17:10.736Z,1.50
2023-03-08T03:19:40.079Z,1.47
2023-03-08T03:22:09.063Z,1.44
2023-03-08T03:24:38.115Z,1.50
2023-03-08T03:27:08.726Z,1.52
2023-03-08T03:29:41.354Z,1.47
2023-03-08T03:32:15.429Z,1.48
2023-03-08T03:34:44.862Z,1.52
2023-03-08T03:37:14.772Z,1.49
2023-03-08T03:39:44.182Z,1.52
2023-03-08T03:42:16.441Z,1.53
2023-03-08T03:44:54.420Z,1.48
2023-03-08T03:47:24.274Z,1.38
2023-03-08T03:49:58.417Z,1.28
2023-03-08T03:52:31.154Z,1.26
2023-03-08T03:55:05.647Z,1.28
2023-03-08T03:57:34.696Z,1.28
2023-03-08T04:00:07.252Z,1.32
2023-03-08T04:02:42.426Z,1.30
2023-03-08T04:05:15.097Z,1.34
2023-03-08T04:07:52.376Z,1.30
2023-03-08T04:10:24.680Z,1.29
2023-03-08T04:12:55.234Z,1.34
2023-03-08T04:15:26.428Z,1.43
2023-03-08T04:17:55.662Z,1.73
2023-03-08T04:20:28.255Z,1.78
2023-03-08T04:23:00.891Z,1.65
2023-03-08T04:25:35.182Z,1.53
2023-03-08T04:28:06.353Z,1.69
2023-03-08T04:30:38.502Z,1.75
2023-03-08T04:33:09.419Z,1.81
2023-03-08T04:35:46.534Z,1.75
2023-03-08T04:38:17.952Z,1.56
2023-03-08T04:41:05.537Z,1.51
2023-03-08T04:43:48.266Z,1.54
2023-03-08T04:46:23.265Z,1.56
2023-03-08T04:48:55.565Z,1.47
2023-03-08T04:51:30.310Z,1.39
2023-03-08T04:54:06.303Z,1.41
2023-03-08T04:56:38.723Z,1.51
2023-03-08T04:59:07.879Z,1.56
2023-03-08T05:01:38.142Z,1.28
2023-03-08T05:04:07.092Z,1.03
2023-03-08T05:06:40.607Z,0.93
2023-03-08T05:09:11.470Z,1.13
2023-03-08T05:11:42.728Z,1.00
2023-03-08T05:14:15.071Z,0.88
2023-03-08T05:16:45.702Z,0.73
2023-03-08T05:19:14.781Z,0.82
2023-03-08T05:21:52.214Z,0.80
2023-03-08T05:24:22.244Z,0.76
2023-03-08T05:26:51.388Z,0.65
2023-03-08T05:29:20.937Z,0.67
2023-03-08T05:31:52.759Z,0.69
2023-03-08T05:34:22.355Z,0.58
2023-03-08T05:36:51.436Z,0.51
2023-03-08T05:39:21.588Z,0.54
2023-03-08T05:42:00.023Z,0.48
2023-03-08T05:44:36.541Z,0.54
2023-03-08T05:47:08.165Z,0.33
2023-03-08T05:49:38.551Z,0.25
2023-03-08T05:52:08.931Z,0.27
2023-03-08T05:54:39.628Z,0.47
2023-03-08T05:57:12.910Z,0.49
2023-03-08T05:59:42.589Z,0.49
2023-03-08T06:02:16.029Z,0.56
2023-03-08T06:04:49.300Z,0.54
2023-03-08T06:07:21.827Z,0.59
2023-03-08T06:09:56.611Z,0.67
2023-03-08T06:12:26.298Z,0.81
2023-03-08T06:14:59.019Z,0.80
2023-03-08T06:17:33.122Z,0.90
2023-03-08T06:20:02.122Z,0.81
2023-03-08T06:22:33.916Z,0.85
2023-03-08T06:25:04.987Z,0.92
2023-03-08T06:27:37.249Z,0.95
2023-03-08T06:30:13.516Z,1.17
2023-03-08T06:32:44.498Z,1.29
2023-03-08T06:35:13.800Z,1.20
2023-03-08T06:37:49.336Z,1.25
2023-03-08T06:40:20.876Z,1.36
2023-03-08T06:42:50.175Z,1.28
2023-03-08T06:45:19.339Z,1.35
2023-03-08T06:47:50.921Z,1.52
2023-03-08T06:50:20.378Z,1.64
2023-03-08T06:52:51.510Z,1.81
2023-03-08T06:55:27.431Z,2.05
2023-03-08T06:57:56.622Z,2.20
2023-03-08T07:00:25.799Z,2.37
2023-03-08T07:02:56.154Z,2.64
2023-03-08T07:05:26.127Z,2.88
2023-03-08T07:07:55.121Z,3.11
2023-03-08T07:10:24.498Z,3.21
2023-03-08T07:12:54.887Z,3.12
2023-03-08T07:15:25.792Z,3.11
2023-03-08T07:17:57.923Z,3.20
2023-03-08T07:20:28.686Z,3.26
2023-03-08T07:22:58.969Z,3.47
2023-03-08T07:25:28.179Z,3.67
2023-03-08T07:27:57.237Z,3.84
2023-03-08T07:30:26.218Z,3.95
2023-03-08T07:32:56.593Z,4.15
2023-03-08T07:35:26.349Z,4.39
2023-03-08T07:37:55.496Z,4.77
2023-03-08T07:40:29.989Z,5.04
2023-03-08T07:42:58.975Z,5.22
2023-03-08T07:45:39.499Z,5.36
2023-03-08T07:48:09.894Z,5.50
2023-03-08T07:50:39.012Z,5.80
2023-03-08T07:53:08.880Z,6.04
2023-03-08T07:55:38.293Z,6.16
2023-03-08T07:58:07.334Z,6.36
2023-03-08T08:00:36.215Z,6.72
2023-03-08T08:03:05.311Z,7.00
2023-03-08T08:05:37.868Z,7.31
2023-03-08T08:08:06.872Z,7.59
2023-03-08T08:10:35.823Z,7.89
2023-03-08T08:13:04.734Z,8.13
2023-03-08T08:15:33.704Z,8.50
2023-03-08T08:18:02.645Z,9.08
2023-03-08T08:20:31.509Z,9.47
2023-03-08T08:23:01.799Z,9.70
2023-03-08T08:25:30.816Z,9.83
2023-03-08T08:27:59.854Z,9.94
2023-03-08T08:30:34.452Z,9.94
2023-03-08T08:33:06.252Z,9.99
2023-03-08T08:35:43.094Z,10.00
2023-03-08T08:38:13.983Z,10.10
2023-03-08T08:40:43.047Z,10.16
2023-03-08T08:43:11.953Z,10.17
2023-03-08T08:45:45.826Z,10.16
2023-03-08T08:48:15.450Z,10.01
2023-03-08T08:50:44.615Z,9.98
2023-03-08T08:53:15.475Z,9.94
2023-03-08T08:55:45.619Z,10.02
2023-03-08T08:58:15.641Z,10.10
2023-03-08T09:00:45.037Z,10.18
2023-03-08T09:03:13.914Z,10.23
2023-03-08T09:05:45.156Z,10.17
2023-03-08T09:08:15.602Z,10.16
2023-03-08T09:10:44.555Z,10.07
2023-03-08T09:13:14.304Z,9.98
2023-03-08T09:15:43.292Z,10.14
2023-03-08T09:18:12.269Z,10.04
2023-03-08T09:20:41.213Z,10.16
2023-03-08T09:23:10.293Z,10.19
2023-03-08T09:25:40.704Z,10.31
2023-03-08T09:28:10.304Z,10.41
2023-03-08T09:30:39.507Z,10.71
2023-03-08T09:33:08.691Z,10.96
2023-03-08T09:35:37.664Z,11.06
2023-03-08T09:38:06.684Z,11.08
2023-03-08T09:40:49.499Z,11.00
2023-03-08T09:43:33.032Z,11.15
2023-03-08T09:46:02.321Z,11.09
2023-03-08T09:48:33.070Z,10.91
2023-03-08T09:51:05.918Z,10.81
2023-03-08T09:53:40.805Z,10.79
2023-03-08T09:56:24.140Z,10.94
2023-03-08T09:58:59.067Z,10.91
2023-03-08T10:01:39.149Z,10.52
2023-03-08T10:04:24.929Z,10.60
2023-03-08T10:07:11.052Z,10.47
2023-03-08T10:09:47.081Z,9.78
2023-03-08T10:12:29.451Z,9.40
2023-03-08T10:15:04.913Z,9.52
2023-03-08T10:17:43.454Z,9.88
2023-03-08T10:20:23.209Z,10.25
2023-03-08T10:22:59.598Z,10.17
2023-03-08T10:25:31.738Z,10.01
2023-03-08T10:28:05.358Z,9.88
2023-03-08T10:30:43.343Z,10.06
2023-03-08T10:33:15.671Z,10.08
2023-03-08T10:36:02.851Z,9.94
2023-03-08T10:38:35.138Z,10.10
2023-03-08T10:41:07.131Z,10.11
2023-03-08T10:43:41.777Z,10.40
2023-03-08T10:46:15.821Z,10.65
2023-03-08T10:48:45.570Z,10.89
2023-03-08T10:51:20.876Z,11.13
2023-03-08T10:53:57.997Z,11.60
2023-03-08T10:56:31.646Z,11.87
2023-03-08T10:59:02.179Z,12.01
2023-03-08T11:01:33.958Z,12.19
2023-03-08T11:04:05.802Z,12.52
2023-03-08T11:06:36.334Z,12.61
2023-03-08T11:09:19.994Z,12.62
2023-03-08T11:11:49.065Z,12.63
2023-03-08T11:14:19.788Z,12.60
2023-03-08T11:17:03.468Z,12.54
2023-03-08T11:19:59.913Z,12.84
2023-03-08T11:22:45.464Z,13.35
2023-03-08T11:25:33.195Z,13.69
2023-03-08T11:28:18.101Z,13.97
2023-03-08T11:31:02.444Z,14.03
2023-03-08T11:33:50.166Z,14.02
2023-03-08T11:36:33.567Z,14.03
2023-03-08T11:39:13.999Z,13.88
2023-03-08T11:41:54.324Z,13.93
2023-03-08T11:44:56.314Z,14.40
2023-03-08T11:47:58.629Z,14.21
2023-03-08T11:50:32.946Z,14.03
2023-03-08T11:53:18.072Z,14.41
2023-03-08T11:56:03.453Z,14.92
2023-03-08T11:58:40.270Z,15.02
2023-03-08T12:01:20.669Z,15.50
2023-03-08T12:03:54.900Z,16.41
2023-03-08T12:06:30.169Z,17.60
2023-03-08T12:09:10.925Z,17.62
2023-03-08T12:11:44.879Z,17.96
2023-03-08T12:14:19.513Z,17.96
2023-03-08T12:16:52.630Z,17.83
2023-03-08T12:19:33.813Z,17.85
2023-03-08T12:22:19.646Z,18.81
2023-03-08T12:24:54.755Z,19.34
2023-03-08T12:27:30.180Z,19.16
2023-03-08T12:30:12.514Z,19.03
2023-03-08T12:32:43.482Z,18.59
2023-03-08T12:35:30.824Z,19.01
2023-03-08T12:38:01.943Z,19.16
2023-03-08T12:40:41.476Z,17.94
2023-03-08T12:43:14.744Z,16.46
2023-03-08T12:45:45.312Z,15.63
2023-03-08T12:48:23.969Z,14.95
2023-03-08T12:51:04.116Z,14.53
2023-03-08T12:53:41.800Z,14.65
2023-03-08T12:56:29.184Z,14.80
2023-03-08T12:59:01.171Z,14.48
2023-03-08T13:01:41.167Z,13.88
2023-03-08T13:04:40.307Z,13.89
2023-03-08T13:07:29.948Z,13.72
2023-03-08T13:10:08.993Z,13.90
2023-03-08T13:13:06.113Z,14.70
2023-03-08T13:15:35.102Z,15.37
2023-03-08T13:18:15.238Z,15.68
2023-03-08T13:21:15.664Z,16.99
2023-03-08T13:24:01.355Z,17.22
2023-03-08T13:26:54.203Z,17.82
2023-03-08T13:29:23.302Z,19.45
2023-03-08T13:31:53.390Z,19.06
2023-03-08T13:34:30.669Z,18.80
2023-03-08T13:37:00.457Z,19.56
2023-03-08T13:39:32.766Z,18.74
2023-03-08T13:42:11.433Z,19.05
2023-03-08T13:44:41.060Z,20.46
2023-03-08T13:47:24.157Z,21.67
2023-03-08T13:49:56.408Z,22.78
2023-03-08T13:52:31.070Z,23.84
2023-03-08T13:55:05.601Z,25.41
2023-03-08T13:57:38.174Z,24.21
2023-03-08T14:00:26.362Z,25.04
2023-03-08T14:02:57.627Z,25.11
2023-03-08T14:05:28.788Z,25.21
2023-03-08T14:08:04.150Z,25.85
2023-03-08T14:10:38.822Z,26.01
2023-03-08T14:13:17.073Z,25.59
2023-03-08T14:15:51.002Z,26.11
2023-03-08T14:18:24.021Z,27.06
2023-03-08T14:21:06.139Z,26.67
2023-03-08T14:23:41.763Z,26.67
2023-03-08T14:26:30.581Z,28.35
2023-03-08T14:29:22.213Z,29.15
2023-03-08T14:32:31.164Z,28.84
2023-03-08T14:35:08.460Z,30.86
2023-03-08T14:37:38.587Z,30.73
2023-03-08T14:40:30.315Z,29.52
2023-03-08T14:43:04.767Z,29.03
2023-03-08T14:45:42.336Z,30.54
2023-03-08T14:48:26.276Z,31.46
2023-03-08T14:50:59.139Z,31.46
2023-03-08T14:53:32.245Z,31.16
2023-03-08T14:56:03.717Z,29.84
2023-03-08T14:58:39.824Z,29.45
2023-03-08T15:01:09.078Z,30.77
2023-03-08T15:03:38.427Z,30.51
2023-03-08T15:06:16.848Z,30.12
2023-03-08T15:08:45.972Z,30.49
2023-03-08T15:11:15.142Z,29.73
2023-03-08T15:13:46.487Z,28.60
2023-03-08T15:16:16.033Z,29.92
2023-03-08T15:18:45.165Z,29.00
2023-03-08T15:21:18.140Z,26.90
2023-03-08T15:23:47.808Z,25.42
2023-03-08T15:26:25.734Z,22.71
2023-03-08T15:28:56.398Z,20.90
2023-03-08T15:31:25.505Z,21.83
2023-03-08T15:33:57.047Z,21.23
2023-03-08T15:36:26.377Z,20.98
2023-03-08T15:38:55.292Z,19.91
2023-03-08T15:41:24.407Z,19.31
2023-03-08T15:43:54.528Z,18.41
2023-03-08T15:46:25.057Z,17.89
2023-03-08T15:48:53.977Z,17.72
2023-03-08T15:51:31.925Z,16.59
2023-03-08T15:54:04.637Z,15.74
2023-03-08T15:56:34.144Z,15.34
2023-03-08T15:59:05.626Z,14.91
2023-03-08T16:01:36.039Z,14.55
2023-03-08T16:04:05.042Z,14.21
2023-03-08T16:06:33.977Z,13.98
2023-03-08T16:09:02.960Z,13.78
2023-03-08T16:11:33.097Z,13.46
2023-03-08T16:14:02.237Z,13.24
2023-03-08T16:16:44.319Z,13.09
2023-03-08T16:19:15.430Z,12.96
2023-03-08T16:21:44.423Z,12.98
2023-03-08T16:24:13.431Z,12.81
2023-03-08T16:26:42.359Z,12.63
2023-03-08T16:29:11.537Z,12.66
2023-03-08T16:31:42.326Z,12.65
2023-03-08T16:34:12.748Z,12.37
2023-03-08T16:36:43.443Z,12.21
2023-03-08T16:39:12.732Z,11.99
2023-03-08T16:41:41.835Z,11.77
2023-03-08T16:44:22.450Z,11.54
2023-03-08T16:46:52.037Z,11.60
2023-03-08T16:49:22.795Z,11.50
2023-03-08T16:51:53.057Z,11.35
2023-03-08T16:54:22.260Z,11.32
2023-03-08T16:56:51.613Z,11.36
2023-03-08T16:59:20.682Z,11.56
2023-03-08T17:01:50.164Z,11.60
2023-03-08T17:04:19.491Z,11.51
2023-03-08T17:06:48.394Z,11.57
2023-03-08T17:09:18.743Z,11.42
2023-03-08T17:11:47.641Z,11.30
2023-03-08T17:14:16.636Z,11.36
2023-03-08T17:16:45.572Z,11.45
2023-03-08T17:19:17.755Z,11.52
2023-03-08T17:21:46.694Z,11.40
2023-03-08T17:24:16.136Z,11.47
2023-03-08T17:26:50.088Z,11.47
2023-03-08T17:29:19.588Z,11.58
2023-03-08T17:31:48.597Z,11.48
2023-03-08T17:34:18.636Z,11.36
2023-03-08T17:36:47.965Z,11.20
2023-03-08T17:39:17.552Z,10.99
2023-03-08T17:41:51.269Z,10.84
2023-03-08T17:44:20.238Z,11.06
2023-03-08T17:46:50.159Z,11.07
2023-03-08T17:49:23.451Z,11.13
2023-03-08T17:51:52.857Z,11.24
2023-03-08T17:54:22.014Z,11.34
2023-03-08T17:56:52.390Z,11.32
2023-03-08T17:59:21.597Z,11.10
2023-03-08T18:01:50.754Z,10.82
2023-03-08T18:04:22.216Z,10.73
2023-03-08T18:06:51.278Z,10.49
2023-03-08T18:09:20.301Z,10.31
2023-03-08T18:11:50.068Z,10.22
2023-03-08T18:14:24.352Z,9.99
2023-03-08T18:16:57.456Z,9.90
2023-03-08T18:19:26.426Z,9.79
2023-03-08T18:21:57.384Z,9.67
2023-03-08T18:24:27.775Z,9.62
2023-03-08T18:26:58.136Z,10.01
2023-03-08T18:29:28.898Z,9.82
2023-03-08T18:31:57.970Z,9.66
2023-03-08T18:34:26.940Z,9.53
2023-03-08T18:36:58.476Z,9.39
2023-03-08T18:39:27.706Z,9.31
2023-03-08T18:41:58.286Z,9.32
2023-03-08T18:44:28.821Z,9.38
2023-03-08T18:47:00.078Z,9.37
2023-03-08T18:49:29.130Z,9.29
2023-03-08T18:51:58.802Z,9.62
2023-03-08T18:54:27.808Z,9.79
2023-03-08T18:56:59.574Z,9.68
2023-03-08T18:59:33.269Z,9.91
2023-03-08T19:02:02.405Z,9.93
2023-03-08T19:04:31.529Z,9.90
2023-03-08T19:07:00.446Z,9.77
2023-03-08T19:09:29.622Z,9.62
2023-03-08T19:12:00.102Z,9.85
2023-03-08T19:14:30.738Z,9.75
2023-03-08T19:17:00.888Z,9.88
2023-03-08T19:19:29.890Z,9.77
2023-03-08T19:21:58.838Z,9.83
2023-03-08T19:24:27.830Z,9.71
2023-03-08T19:27:03.711Z,9.84
2023-03-08T19:29:34.363Z,9.92
2023-03-08T19:32:06.387Z,10.03
2023-03-08T19:34:38.073Z,9.92
2023-03-08T19:37:09.265Z,9.76
2023-03-08T19:39:40.358Z,9.66
2023-03-08T19:42:14.122Z,9.57
2023-03-08T19:44:48.353Z,9.28
2023-03-08T19:47:20.066Z,9.15
2023-03-08T19:49:49.816Z,9.05
2023-03-08T19:52:19.393Z,8.96
2023-03-08T19:54:48.921Z,8.96
2023-03-08T19:57:18.496Z,9.06
2023-03-08T19:59:57.771Z,8.95
2023-03-08T20:02:27.536Z,8.84
2023-03-08T20:04:56.569Z,8.77
2023-03-08T20:07:25.465Z,8.75
2023-03-08T20:09:54.632Z,8.77
2023-03-08T20:12:23.916Z,8.68
2023-03-08T20:14:54.815Z,8.72
2023-03-08T20:17:24.184Z,8.46
2023-03-08T20:19:54.584Z,8.31
2023-03-08T20:22:24.954Z,8.26
2023-03-08T20:24:54.175Z,8.13
2023-03-08T20:27:23.145Z,8.15
2023-03-08T20:29:55.181Z,8.15
2023-03-08T20:32:25.145Z,8.05
2023-03-08T20:34:54.215Z,7.93
2023-03-08T20:37:23.769Z,8.06
2023-03-08T20:39:55.342Z,8.21
2023-03-08T20:42:27.996Z,8.66
2023-03-08T20:44:58.394Z,8.86
2023-03-08T20:47:28.202Z,9.16
2023-03-08T20:49:57.401Z,9.21
2023-03-08T20:52:26.348Z,9.27
2023-03-08T20:54:57.108Z,9.40
2023-03-08T20:57:26.672Z,9.43
2023-03-08T20:59:55.762Z,9.43
2023-03-08T21:02:26.424Z,9.57
2023-03-08T21:04:58.231Z,9.48
2023-03-08T21:07:27.529Z,9.46
2023-03-08T21:09:56.721Z,9.38
2023-03-08T21:12:25.694Z,9.77
2023-03-08T21:14:55.028Z,9.79
2023-03-08T21:17:26.134Z,9.60
2023-03-08T21:19:55.473Z,9.48
2023-03-08T21:22:24.502Z,9.46
2023-03-08T21:24:53.419Z,9.31
2023-03-08T21:27:22.310Z,9.12
2023-03-08T21:29:51.422Z,9.01
2023-03-08T21:32:22.089Z,8.93
2023-03-08T21:34:53.281Z,8.63
2023-03-08T21:37:22.322Z,8.39
2023-03-08T21:39:51.375Z,8.13
2023-03-08T21:42:20.382Z,7.92
2023-03-08T21:44:49.310Z,7.67
2023-03-08T21:47:18.333Z,7.48
2023-03-08T21:49:47.185Z,7.36
2023-03-08T21:52:20.437Z,7.26
2023-03-08T21:54:49.311Z,7.16
2023-03-08T21:57:18.265Z,7.08
2023-03-08T21:59:47.330Z,6.99
2023-03-08T22:02:16.491Z,6.84
2023-03-08T22:04:45.445Z,6.71
2023-03-08T22:07:14.530Z,6.69
2023-03-08T22:09:44.868Z,6.74
2023-03-08T22:12:14.913Z,6.71
2023-03-08T22:14:50.046Z,6.60
2023-03-08T22:17:20.022Z,6.62
2023-03-08T22:19:50.719Z,6.66
2023-03-08T22:22:20.912Z,6.68
2023-03-08T22:24:51.622Z,6.71
2023-03-08T22:27:20.708Z,6.76
2023-03-08T22:29:49.608Z,6.68
2023-03-08T22:32:18.801Z,6.58
2023-03-08T22:34:47.742Z,6.33
2023-03-08T22:37:16.781Z,6.16
2023-03-08T22:39:45.754Z,6.08
2023-03-08T22:42:16.749Z,6.01
2023-03-08T22:44:45.756Z,5.97
2023-03-08T22:47:14.821Z,5.84
2023-03-08T22:49:43.712Z,5.80
2023-03-08T22:52:12.648Z,5.70
2023-03-08T22:54:45.642Z,5.54
2023-03-08T22:57:17.558Z,5.20
2023-03-08T22:59:46.943Z,4.97
2023-03-08T23:02:16.185Z,4.87
2023-03-08T23:04:45.151Z,4.66
2023-03-08T23:07:14.053Z,4.61
2023-03-08T23:09:43.095Z,4.56
2023-03-08T23:12:12.151Z,4.55
2023-03-08T23:14:45.203Z,4.53
2023-03-08T23:17:14.341Z,4.46
2023-03-08T23:19:45.036Z,4.44
2023-03-08T23:22:14.290Z,4.22
2023-03-08T23:24:43.417Z,4.15
2023-03-08T23:27:12.309Z,4.03
2023-03-08T23:29:42.751Z,3.99
2023-03-08T23:32:11.974Z,3.98
2023-03-08T23:34:42.117Z,3.90
2023-03-08T23:37:11.090Z,3.78
2023-03-08T23:39:40.174Z,3.86
2023-03-08T23:42:09.480Z,3.71
2023-03-08T23:44:38.888Z,3.51
2023-03-08T23:47:09.417Z,3.40
2023-03-08T23:49:38.295Z,3.27
2023-03-08T23:52:07.458Z,3.09
2023-03-08T23:54:36.377Z,3.16
2023-03-08T23:57:05.409Z,3.76
2023-03-08T23:59:36.944Z,3.39
